createdAt,value
2017-04-25T00:01:05.214Z,0
2017-04-25T00:02:15.236Z,0
2017-04-25T00:03:25.589Z,0
2017-04-25T00:04:35.945Z,0
2017-04-25T00:05:46.291Z,0
2017-04-25T00:06:56.632Z,0
2017-04-25T00:08:06.687Z,0
2017-04-25T00:09:17.033Z,0
2017-04-25T00:10:27.056Z,0
2017-04-25T00:11:37.385Z,0
2017-04-25T00:12:47.739Z,0
2017-04-25T00:13:58.099Z,0
2017-04-25T00:15:08.448Z,0
2017-04-25T00:16:18.808Z,0
2017-04-25T00:17:28.849Z,0
2017-04-25T00:18:38.585Z,0
2017-04-25T00:19:48.953Z,0
2017-04-25T00:20:59.322Z,0
2017-04-25T00:22:09.387Z,0
2017-04-25T00:23:19.736Z,0
2017-04-25T00:24:30.084Z,0
2017-04-25T00:25:40.452Z,0
2017-04-25T00:26:50.792Z,0
2017-04-25T00:28:01.141Z,0
2017-04-25T00:29:11.485Z,0
2017-04-25T00:30:21.815Z,0
2017-04-25T00:31:31.846Z,0
2017-04-25T00:32:42.185Z,0
2017-04-25T00:33:52.206Z,0
2017-04-25T00:35:02.560Z,0
2017-04-25T00:36:12.912Z,0
2017-04-25T00:37:23.243Z,0
2017-04-25T00:38:33.281Z,0
2017-04-25T00:39:43.627Z,0
2017-04-25T00:40:53.647Z,0
2017-04-25T00:42:03.983Z,0
2017-04-25T00:43:14.328Z,0
2017-04-25T00:44:24.354Z,0
2017-04-25T00:45:34.688Z,0
2017-04-25T00:46:45.031Z,0
2017-04-25T00:47:55.066Z,0
2017-04-25T00:49:05.418Z,0
2017-04-25T00:50:15.811Z,0
2017-04-25T00:51:26.151Z,0
2017-04-25T00:52:36.490Z,0
2017-04-25T00:53:46.837Z,0
2017-04-25T00:54:56.861Z,0
2017-04-25T00:56:06.918Z,0
2017-04-25T00:57:16.999Z,0
2017-04-25T00:58:27.342Z,0
2017-04-25T00:59:37.706Z,0
2017-04-25T01:00:47.741Z,0
2017-04-25T01:01:57.801Z,0
2017-04-25T01:03:08.134Z,0
2017-04-25T01:04:17.846Z,0
2017-04-25T01:05:27.872Z,0
2017-04-25T01:06:37.589Z,0
2017-04-25T01:07:47.937Z,0
2017-04-25T01:08:57.980Z,0
2017-04-25T01:10:08.315Z,0
2017-04-25T01:11:18.650Z,0
2017-04-25T01:12:28.988Z,0
2017-04-25T01:13:39.340Z,0
2017-04-25T01:14:49.689Z,0
2017-04-25T01:16:00.055Z,0
2017-04-25T01:17:10.395Z,0
2017-04-25T01:18:20.751Z,0
2017-04-25T01:19:31.099Z,0
2017-04-25T01:20:41.443Z,0
2017-04-25T01:21:51.162Z,0
2017-04-25T01:23:01.524Z,0
2017-04-25T01:24:11.567Z,0
2017-04-25T01:25:21.900Z,0
2017-04-25T01:26:31.931Z,0
2017-04-25T01:27:41.969Z,0
2017-04-25T01:28:52.026Z,0
2017-04-25T01:30:02.377Z,0
2017-04-25T01:31:12.774Z,0
2017-04-25T01:32:23.137Z,0
2017-04-25T01:33:33.158Z,0
2017-04-25T01:34:43.529Z,0
2017-04-25T01:35:53.877Z,0
2017-04-25T01:37:04.212Z,0
2017-04-25T01:38:14.545Z,0
2017-04-25T01:39:24.579Z,0
2017-04-25T01:40:34.929Z,0
2017-04-25T01:41:45.271Z,0
2017-04-25T01:42:55.626Z,0
2017-04-25T01:44:05.979Z,0
2017-04-25T01:45:16.325Z,0
2017-04-25T01:46:26.697Z,0
2017-04-25T01:47:37.045Z,0
2017-04-25T01:48:47.396Z,0
2017-04-25T01:49:57.413Z,0
2017-04-25T01:51:07.767Z,0
2017-04-25T01:52:17.810Z,0
2017-04-25T01:53:28.141Z,0
2017-04-25T01:54:38.540Z,0
2017-04-25T01:55:48.561Z,0
2017-04-25T01:56:58.599Z,0
2017-04-25T01:58:08.948Z,0
2017-04-25T01:59:18.675Z,0
2017-04-25T02:00:29.059Z,0
2017-04-25T02:01:39.393Z,0
2017-04-25T02:02:49.741Z,0
2017-04-25T02:04:00.104Z,0
2017-04-25T02:05:10.118Z,0
2017-04-25T02:06:20.446Z,0
2017-04-25T02:07:30.803Z,0
2017-04-25T02:08:41.147Z,0
2017-04-25T02:09:51.183Z,0
2017-04-25T02:11:01.527Z,0
2017-04-25T02:12:11.566Z,0
2017-04-25T02:13:21.923Z,0
2017-04-25T02:14:32.268Z,0
2017-04-25T02:15:42.621Z,0
2017-04-25T02:16:52.958Z,0
2017-04-25T02:18:03.317Z,0
2017-04-25T02:19:13.685Z,0
2017-04-25T02:20:24.023Z,0
2017-04-25T02:21:33.798Z,0
2017-04-25T02:22:43.830Z,0
2017-04-25T02:23:53.870Z,0
2017-04-25T02:25:04.234Z,0
2017-04-25T02:26:13.962Z,0
2017-04-25T02:27:24.352Z,0
2017-04-25T02:28:34.387Z,0
2017-04-25T02:29:44.781Z,0
2017-04-25T02:30:55.126Z,0
2017-04-25T02:32:05.145Z,0
2017-04-25T02:33:15.167Z,0
2017-04-25T02:34:25.577Z,0
2017-04-25T02:35:35.919Z,0
2017-04-25T02:36:46.246Z,0
2017-04-25T02:37:56.591Z,0
2017-04-25T02:39:06.940Z,0
2017-04-25T02:40:16.966Z,0
2017-04-25T02:41:27.326Z,0
2017-04-25T02:42:37.360Z,0
2017-04-25T02:43:47.706Z,0
2017-04-25T02:44:58.048Z,0
2017-04-25T02:46:08.431Z,0
2017-04-25T02:47:18.459Z,0
2017-04-25T02:48:28.804Z,0
2017-04-25T02:49:38.826Z,0
2017-04-25T02:50:49.168Z,0
2017-04-25T02:51:59.518Z,0
2017-04-25T02:53:09.559Z,0
2017-04-25T02:54:19.581Z,0
2017-04-25T02:55:29.311Z,0
2017-04-25T02:56:39.661Z,0
2017-04-25T02:57:49.695Z,0
2017-04-25T02:59:00.070Z,0
2017-04-25T03:00:10.102Z,0
2017-04-25T03:01:20.453Z,0
2017-04-25T03:32:35.605Z,24
2017-04-25T03:33:45.931Z,28
2017-04-25T03:34:56.265Z,28
2017-04-25T03:36:06.632Z,36
2017-04-25T03:37:16.971Z,44
2017-04-25T03:38:27.315Z,52
2017-04-25T03:39:37.349Z,64
2017-04-25T03:40:47.685Z,68
2017-04-25T03:41:58.013Z,80
2017-04-25T03:43:08.375Z,92
2017-04-25T03:44:18.722Z,108
2017-04-25T03:45:29.101Z,120
2017-04-25T03:46:39.483Z,136
2017-04-25T03:47:49.832Z,152
2017-04-25T03:49:00.162Z,172
2017-04-25T03:50:10.564Z,196
2017-04-25T03:51:20.937Z,216
2017-04-25T03:52:31.514Z,236
2017-04-25T03:53:41.862Z,264
2017-04-25T03:54:51.891Z,292
2017-04-25T03:56:02.247Z,320
2017-04-25T03:57:12.585Z,352
2017-04-25T03:58:22.301Z,380
2017-04-25T03:59:32.332Z,404
2017-04-25T04:00:42.683Z,432
2017-04-25T04:01:52.411Z,468
2017-04-25T04:03:02.749Z,492
2017-04-25T04:04:13.086Z,512
2017-04-25T04:05:23.436Z,548
2017-04-25T04:06:33.473Z,612
2017-04-25T04:07:43.879Z,656
2017-04-25T04:08:53.946Z,680
2017-04-25T04:10:03.996Z,692
2017-04-25T04:11:14.327Z,724
2017-04-25T04:12:24.703Z,780
2017-04-25T04:13:34.740Z,844
2017-04-25T04:14:45.081Z,912
2017-04-25T04:15:55.431Z,964
2017-04-25T04:17:05.758Z,1024
2017-04-25T04:18:16.098Z,1168
2017-04-25T04:19:26.122Z,1276
2017-04-25T04:20:36.463Z,1308
2017-04-25T04:21:46.810Z,1404
2017-04-25T04:22:57.157Z,1452
2017-04-25T04:24:07.493Z,1592
2017-04-25T04:25:17.822Z,1956
2017-04-25T04:26:28.182Z,2440
2017-04-25T04:27:38.520Z,2344
2017-04-25T04:28:48.874Z,3216
2017-04-25T04:29:59.230Z,4016
2017-04-25T04:31:09.573Z,4388
2017-04-25T04:32:19.912Z,4608
2017-04-25T04:33:30.279Z,4852
2017-04-25T04:34:40.316Z,5192
2017-04-25T04:35:50.672Z,5312
2017-04-25T04:37:01.024Z,5376
2017-04-25T04:38:11.060Z,5412
2017-04-25T04:39:20.785Z,5600
2017-04-25T04:40:31.125Z,6008
2017-04-25T04:41:41.720Z,6284
2017-04-25T04:42:52.097Z,6424
2017-04-25T04:44:02.121Z,6672
2017-04-25T04:45:12.489Z,6936
2017-04-25T04:46:22.533Z,7200
2017-04-25T04:47:32.883Z,7232
2017-04-25T04:48:43.270Z,7520
2017-04-25T04:49:53.301Z,7632
2017-04-25T04:51:03.350Z,7924
2017-04-25T04:52:13.696Z,7688
2017-04-25T04:53:23.732Z,7716
2017-04-25T04:54:33.459Z,7824
2017-04-25T04:55:43.802Z,7848
2017-04-25T04:56:54.141Z,8388
2017-04-25T04:58:04.486Z,8604
2017-04-25T04:59:14.510Z,8968
2017-04-25T05:00:24.849Z,9116
2017-04-25T05:01:35.189Z,9388
2017-04-25T05:02:45.540Z,9752
2017-04-25T05:03:55.580Z,9884
2017-04-25T05:05:05.939Z,9976
2017-04-25T05:06:15.965Z,9940
2017-04-25T05:07:26.322Z,9948
2017-04-25T05:08:36.680Z,10136
2017-04-25T05:09:46.424Z,10248
2017-04-25T05:10:56.773Z,10412
2017-04-25T05:12:07.115Z,10472
2017-04-25T05:13:17.151Z,10552
2017-04-25T05:14:26.859Z,10704
2017-04-25T05:15:36.915Z,10900
2017-04-25T05:16:46.946Z,10880
2017-04-25T05:17:56.989Z,10928
2017-04-25T05:19:07.359Z,10716
2017-04-25T05:20:17.717Z,10780
2017-04-25T05:21:28.084Z,10556
2017-04-25T05:22:38.435Z,10972
2017-04-25T05:23:48.817Z,10928
2017-04-25T05:24:58.865Z,10964
2017-04-25T05:26:09.217Z,11196
2017-04-25T05:27:18.944Z,11352
2017-04-25T05:28:29.000Z,11736
2017-04-25T05:29:39.347Z,11724
2017-04-25T05:30:49.692Z,11784
2017-04-25T05:32:00.062Z,12060
2017-04-25T05:33:09.802Z,11884
2017-04-25T05:34:20.148Z,11828
2017-04-25T05:35:30.487Z,11824
2017-04-25T05:36:40.837Z,11764
2017-04-25T05:37:51.186Z,11668
2017-04-25T05:39:01.220Z,11736
2017-04-25T05:40:11.570Z,11980
2017-04-25T05:41:21.975Z,11624
2017-04-25T05:42:32.023Z,11276
2017-04-25T05:43:42.362Z,11252
2017-04-25T05:44:52.724Z,11048
2017-04-25T05:46:03.090Z,8948
2017-04-25T05:47:13.123Z,5736
2017-04-25T05:48:23.469Z,4708
2017-04-25T05:49:33.516Z,4708
2017-04-25T05:50:43.858Z,5312
2017-04-25T05:51:54.212Z,5360
2017-04-25T05:53:04.263Z,4768
2017-04-25T05:54:14.585Z,4752
2017-04-25T05:55:24.931Z,4748
2017-04-25T05:56:35.305Z,4788
2017-04-25T05:57:45.642Z,4888
2017-04-25T05:58:55.673Z,6592
2017-04-25T06:00:06.014Z,6644
2017-04-25T06:01:16.062Z,5208
2017-04-25T06:02:26.414Z,4924
2017-04-25T06:03:36.456Z,4884
2017-04-25T06:04:46.192Z,4880
2017-04-25T06:05:56.230Z,4968
2017-04-25T06:07:06.257Z,4968
2017-04-25T06:08:16.296Z,4992
2017-04-25T06:09:26.638Z,5032
2017-04-25T06:10:36.987Z,5076
2017-04-25T06:12:06.540Z,5112
2017-04-25T06:13:16.614Z,5124
2017-04-25T06:14:27.021Z,5192
2017-04-25T06:15:37.361Z,5264
2017-04-25T06:16:47.717Z,5296
2017-04-25T06:17:57.428Z,5320
2017-04-25T06:19:07.462Z,5424
2017-04-25T06:20:17.822Z,5488
2017-04-25T06:21:28.164Z,5536
2017-04-25T06:22:38.514Z,5604
2017-04-25T06:23:48.850Z,5620
2017-04-25T06:24:59.202Z,5684
2017-04-25T06:26:09.247Z,5788
2017-04-25T06:27:19.591Z,5984
2017-04-25T06:28:29.016Z,6064
2017-04-25T06:29:39.051Z,6080
2017-04-25T06:30:49.410Z,6136
2017-04-25T06:31:59.778Z,6036
2017-04-25T06:33:09.193Z,5944
2017-04-25T06:34:19.540Z,5892
2017-04-25T06:35:29.871Z,5660
2017-04-25T06:36:40.252Z,5924
2017-04-25T06:37:50.289Z,5960
2017-04-25T06:39:00.649Z,5736
2017-04-25T06:40:10.991Z,5780
2017-04-25T06:41:21.014Z,5828
2017-04-25T06:42:31.614Z,5800
2017-04-25T06:43:41.958Z,5904
2017-04-25T06:44:52.321Z,5904
2017-04-25T06:46:02.347Z,5900
2017-04-25T06:47:12.321Z,5896
2017-04-25T06:48:22.372Z,5960
2017-04-25T06:49:32.729Z,5988
2017-04-25T06:50:43.081Z,6040
2017-04-25T06:51:53.125Z,6088
2017-04-25T06:53:03.199Z,6072
2017-04-25T06:54:13.571Z,6080
2017-04-25T06:55:23.617Z,6068
2017-04-25T06:56:34.014Z,6104
2017-04-25T06:57:44.067Z,6144
2017-04-25T06:58:54.420Z,6188
2017-04-25T07:00:04.767Z,6196
2017-04-25T07:01:15.102Z,6224
2017-04-25T07:02:25.470Z,6204
2017-04-25T07:03:35.514Z,6172
2017-04-25T07:04:45.559Z,6132
2017-04-25T07:05:55.903Z,6092
2017-04-25T07:07:06.274Z,6068
2017-04-25T07:08:16.621Z,6004
2017-04-25T07:09:26.954Z,5952
2017-04-25T07:10:37.314Z,5884
2017-04-25T07:11:47.341Z,5824
2017-04-25T07:12:57.728Z,5848
2017-04-25T07:14:07.743Z,5856
2017-04-25T07:15:18.081Z,5848
2017-04-25T07:16:27.802Z,5836
2017-04-25T07:17:37.849Z,5868
2017-04-25T07:18:47.925Z,5900
2017-04-25T07:19:58.271Z,5928
2017-04-25T07:21:08.304Z,5956
2017-04-25T07:22:18.657Z,5964
2017-04-25T07:23:29.004Z,5992
2017-04-25T07:24:39.351Z,5968
2017-04-25T07:25:49.710Z,5896
2017-04-25T07:27:00.059Z,5936
2017-04-25T07:28:10.413Z,6012
2017-04-25T07:29:20.752Z,6108
2017-04-25T07:30:30.793Z,6120
2017-04-25T07:31:41.156Z,6184
2017-04-25T07:32:51.201Z,6224
2017-04-25T07:34:01.542Z,6252
2017-04-25T07:35:11.896Z,6276
2017-04-25T07:36:21.916Z,6324
2017-04-25T07:37:32.290Z,6396
2017-04-25T07:38:42.650Z,6400
2017-04-25T07:39:52.980Z,6336
2017-04-25T07:41:03.311Z,6396
2017-04-25T07:42:13.355Z,6332
2017-04-25T07:43:23.392Z,6264
2017-04-25T07:44:33.744Z,6364
2017-04-25T07:45:44.101Z,6488
2017-04-25T07:46:54.124Z,6596
2017-04-25T07:48:04.480Z,6604
2017-04-25T07:49:14.823Z,6564
2017-04-25T07:50:25.169Z,6684
2017-04-25T07:51:35.217Z,6740
2017-04-25T07:52:45.566Z,6824
2017-04-25T07:53:55.593Z,6796
2017-04-25T07:55:05.933Z,6888
2017-04-25T07:56:16.285Z,6952
2017-04-25T07:57:26.637Z,7016
2017-04-25T07:58:37.006Z,7028
2017-04-25T07:59:47.352Z,7060
2017-04-25T08:00:57.069Z,7080
2017-04-25T08:02:07.416Z,7176
2017-04-25T08:03:17.775Z,7240
2017-04-25T08:04:28.124Z,7296
2017-04-25T08:05:38.159Z,7412
2017-04-25T08:06:48.200Z,7504
2017-04-25T08:07:58.243Z,7656
2017-04-25T08:09:08.621Z,7712
2017-04-25T08:10:18.652Z,7752
2017-04-25T08:11:28.374Z,7752
2017-04-25T08:12:38.772Z,7848
2017-04-25T08:13:48.492Z,7884
2017-04-25T08:14:58.548Z,7964
2017-04-25T08:16:08.897Z,8032
2017-04-25T08:17:19.248Z,8180
2017-04-25T08:18:29.585Z,8152
2017-04-25T08:19:39.926Z,8072
2017-04-25T08:20:49.965Z,8356
2017-04-25T08:22:00.582Z,8548
2017-04-25T08:23:10.931Z,8692
2017-04-25T08:24:21.287Z,8768
2017-04-25T08:25:31.626Z,8800
2017-04-25T08:26:41.969Z,8780
2017-04-25T08:27:52.353Z,9100
2017-04-25T08:29:02.709Z,9096
2017-04-25T08:30:13.099Z,9136
2017-04-25T08:31:23.169Z,9020
2017-04-25T08:32:33.542Z,9004
2017-04-25T08:33:43.912Z,8608
2017-04-25T08:34:53.631Z,9020
2017-04-25T08:36:03.684Z,9028
2017-04-25T08:37:14.042Z,9036
2017-04-25T08:38:24.100Z,9204
2017-04-25T08:39:34.457Z,9132
2017-04-25T08:40:44.825Z,8904
2017-04-25T08:41:54.548Z,8792
2017-04-25T08:43:04.916Z,8336
2017-04-25T08:44:15.290Z,9036
2017-04-25T08:45:25.335Z,8748
2017-04-25T08:46:35.679Z,8148
2017-04-25T08:47:46.034Z,8800
2017-04-25T08:48:56.396Z,9192
2017-04-25T08:50:06.754Z,9096
2017-04-25T08:51:17.091Z,8524
2017-04-25T08:52:27.466Z,8708
2017-04-25T08:53:37.825Z,9448
2017-04-25T08:54:47.861Z,9296
2017-04-25T08:55:57.933Z,9456
2017-04-25T08:57:08.298Z,9240
2017-04-25T08:58:18.369Z,9340
2017-04-25T08:59:28.415Z,9088
2017-04-25T09:00:38.447Z,9064
2017-04-25T09:01:48.809Z,8876
2017-04-25T09:02:58.845Z,8304
2017-04-25T09:04:08.892Z,8204
2017-04-25T09:05:19.232Z,8240
2017-04-25T09:06:29.580Z,6948
2017-04-25T09:07:39.623Z,7932
2017-04-25T09:08:49.368Z,7840
2017-04-25T09:09:59.430Z,8124
2017-04-25T09:11:09.481Z,7972
2017-04-25T09:12:19.861Z,8108
2017-04-25T09:13:30.230Z,8200
2017-04-25T09:14:40.591Z,8124
2017-04-25T09:15:50.634Z,8276
2017-04-25T09:17:00.689Z,8188
2017-04-25T09:18:11.042Z,8168
2017-04-25T09:19:21.088Z,8092
2017-04-25T09:20:31.431Z,8068
2017-04-25T09:21:41.471Z,7884
2017-04-25T09:22:51.501Z,7792
2017-04-25T09:24:01.544Z,7220
2017-04-25T09:25:11.896Z,7948
2017-04-25T09:26:21.919Z,8376
2017-04-25T09:27:31.961Z,8068
2017-04-25T09:28:42.325Z,8120
2017-04-25T09:29:52.354Z,7876
2017-04-25T09:31:02.392Z,7664
2017-04-25T09:32:12.445Z,8072
2017-04-25T09:33:22.175Z,7944
2017-04-25T09:34:32.552Z,7752
2017-04-25T09:35:42.909Z,7744
2017-04-25T09:36:52.943Z,7932
2017-04-25T09:38:03.283Z,7812
2017-04-25T09:39:13.652Z,7996
2017-04-25T09:40:24.015Z,7860
2017-04-25T09:41:34.364Z,7868
2017-04-25T09:42:44.394Z,8132
2017-04-25T09:43:54.114Z,8200
2017-04-25T09:45:04.480Z,8160
2017-04-25T09:46:14.816Z,8116
2017-04-25T09:47:25.169Z,8072
2017-04-25T09:48:35.220Z,8012
2017-04-25T09:49:44.956Z,8112
2017-04-25T09:50:55.312Z,8264
2017-04-25T09:52:05.686Z,8328
2017-04-25T09:53:16.154Z,8268
2017-04-25T09:54:26.180Z,8280
2017-04-25T09:55:36.236Z,8236
2017-04-25T09:56:46.596Z,8272
2017-04-25T09:57:56.950Z,8220
2017-04-25T09:59:06.988Z,8148
2017-04-25T10:00:17.343Z,8380
2017-04-25T10:01:27.078Z,8392
2017-04-25T10:02:37.432Z,8380
2017-04-25T10:03:47.783Z,8388
2017-04-25T10:04:58.145Z,8460
2017-04-25T10:06:08.535Z,8436
2017-04-25T10:07:18.565Z,8384
2017-04-25T10:08:28.940Z,7380
2017-04-25T10:09:39.302Z,8232
2017-04-25T10:10:51.296Z,8500
2017-04-25T10:12:01.340Z,8192
2017-04-25T10:13:11.734Z,8672
2017-04-25T10:14:21.814Z,8636
2017-04-25T10:15:32.248Z,8732
2017-04-25T10:16:42.325Z,8816
2017-04-25T10:17:52.719Z,8580
2017-04-25T10:19:03.978Z,8820
2017-04-25T10:20:14.993Z,8620
2017-04-25T10:21:26.057Z,9132
2017-04-25T10:22:37.875Z,8788
2017-04-25T10:23:49.755Z,9140
2017-04-25T10:25:01.660Z,9056
2017-04-25T10:26:13.162Z,8768
2017-04-25T10:27:24.032Z,8624
2017-04-25T10:28:34.400Z,5908
2017-04-25T10:29:45.540Z,8680
2017-04-25T10:30:56.738Z,7260
2017-04-25T10:32:06.792Z,8868
2017-04-25T10:33:17.156Z,8968
2017-04-25T10:34:27.207Z,8832
2017-04-25T10:35:37.566Z,8052
2017-04-25T10:36:47.926Z,8512
2017-04-25T10:37:57.970Z,8552
2017-04-25T10:39:08.362Z,8584
2017-04-25T10:40:18.744Z,8568
2017-04-25T10:41:28.781Z,8144
2017-04-25T10:42:39.135Z,8200
2017-04-25T10:43:49.511Z,8760
2017-04-25T10:44:59.924Z,9164
2017-04-25T10:46:10.305Z,9348
2017-04-25T10:47:20.358Z,9476
2017-04-25T10:48:30.705Z,9224
2017-04-25T10:49:41.108Z,9460
2017-04-25T10:50:51.560Z,9596
2017-04-25T10:52:01.615Z,9672
2017-04-25T10:53:12.224Z,9828
2017-04-25T10:54:22.301Z,9844
2017-04-25T10:55:32.043Z,9404
2017-04-25T10:56:42.492Z,9776
2017-04-25T10:57:52.569Z,9680
2017-04-25T10:59:02.963Z,9592
2017-04-25T11:00:13.362Z,9508
2017-04-25T11:01:23.775Z,9560
2017-04-25T11:02:33.858Z,9592
2017-04-25T11:03:44.239Z,9280
2017-04-25T11:04:54.310Z,8640
2017-04-25T11:06:04.691Z,8852
2017-04-25T11:07:15.079Z,8944
2017-04-25T11:08:25.472Z,8568
2017-04-25T11:09:35.534Z,8392
2017-04-25T11:10:45.925Z,8556
2017-04-25T11:11:56.016Z,8920
2017-04-25T11:13:06.074Z,9456
2017-04-25T11:14:16.194Z,9528
2017-04-25T11:15:26.569Z,9412
2017-04-25T11:16:36.637Z,8924
2017-04-25T11:17:46.750Z,9240
2017-04-25T11:18:57.157Z,9272
2017-04-25T11:20:07.539Z,9312
2017-04-25T11:21:17.920Z,9100
2017-04-25T11:22:28.320Z,9156
2017-04-25T11:23:38.459Z,9280
2017-04-25T11:24:48.832Z,9244
2017-04-25T11:25:59.224Z,9164
2017-04-25T11:27:09.620Z,9136
2017-04-25T11:28:20.046Z,9004
2017-04-25T11:29:30.139Z,9028
2017-04-25T11:30:40.524Z,9080
2017-04-25T11:31:50.898Z,9080
2017-04-25T11:33:00.971Z,9052
2017-04-25T11:34:11.360Z,9016
2017-04-25T11:35:21.743Z,9040
2017-04-25T11:36:32.143Z,9068
2017-04-25T11:37:42.532Z,8980
2017-04-25T11:38:52.973Z,8972
2017-04-25T11:40:03.367Z,9028
2017-04-25T11:41:13.760Z,9020
2017-04-25T11:42:24.134Z,9056
2017-04-25T11:43:34.525Z,9196
2017-04-25T11:44:44.582Z,9112
2017-04-25T11:45:54.922Z,9100
2017-04-25T11:47:05.300Z,9032
2017-04-25T11:48:15.669Z,9076
2017-04-25T11:49:26.014Z,9044
2017-04-25T11:50:36.065Z,9012
2017-04-25T11:51:46.408Z,9092
2017-04-25T11:52:56.760Z,9136
2017-04-25T11:54:06.499Z,9112
2017-04-25T11:55:16.907Z,9164
2017-04-25T11:56:27.255Z,9172
2017-04-25T11:57:37.607Z,9116
2017-04-25T11:58:47.643Z,9144
2017-04-25T11:59:58.001Z,9228
2017-04-25T12:01:08.051Z,8908
2017-04-25T12:02:18.424Z,9168
2017-04-25T12:03:28.470Z,9144
2017-04-25T12:04:38.210Z,9244
2017-04-25T12:05:48.549Z,9232
2017-04-25T12:06:58.626Z,9288
2017-04-25T12:08:08.693Z,9320
2017-04-25T12:09:18.746Z,9216
2017-04-25T12:10:29.103Z,9380
2017-04-25T12:11:39.157Z,9348
2017-04-25T12:12:49.209Z,9372
2017-04-25T12:13:59.318Z,9360
2017-04-25T12:15:09.672Z,9224
2017-04-25T12:16:19.757Z,9228
2017-04-25T12:17:30.150Z,9228
2017-04-25T12:18:40.498Z,9104
2017-04-25T12:19:50.887Z,9044
2017-04-25T12:21:01.257Z,9200
2017-04-25T12:22:11.613Z,9288
2017-04-25T12:23:21.973Z,9448
2017-04-25T12:24:31.728Z,9568
2017-04-25T12:25:42.082Z,9124
2017-04-25T12:26:52.455Z,9236
2017-04-25T12:28:02.831Z,9336
2017-04-25T12:29:12.568Z,9184
2017-04-25T12:30:22.354Z,7044
2017-04-25T12:31:32.703Z,6368
2017-04-25T12:32:42.755Z,9440
2017-04-25T12:33:53.114Z,9724
2017-04-25T12:35:03.491Z,10356
2017-04-25T12:36:13.528Z,10848
2017-04-25T12:37:23.567Z,11252
2017-04-25T12:38:33.612Z,11900
2017-04-25T12:39:44.004Z,12156
2017-04-25T12:40:54.376Z,10612
2017-04-25T12:42:04.751Z,11172
2017-04-25T12:43:15.110Z,12804
2017-04-25T12:44:25.152Z,12584
2017-04-25T12:45:35.506Z,12420
2017-04-25T12:46:45.546Z,10152
2017-04-25T12:47:55.908Z,11252
2017-04-25T12:49:06.275Z,12448
2017-04-25T12:50:16.625Z,12272
2017-04-25T12:51:26.665Z,11124
2017-04-25T12:52:37.039Z,8756
2017-04-25T12:53:47.105Z,11260
2017-04-25T12:54:57.157Z,8440
2017-04-25T12:56:07.206Z,12292
2017-04-25T12:57:17.549Z,12204
2017-04-25T12:58:27.934Z,12204
2017-04-25T12:59:38.351Z,12060
2017-04-25T13:00:48.723Z,10320
2017-04-25T13:01:58.783Z,8804
2017-04-25T13:03:09.149Z,9124
2017-04-25T13:04:19.219Z,11596
2017-04-25T13:05:29.579Z,12080
2017-04-25T13:06:39.953Z,11908
2017-04-25T13:07:50.319Z,11768
2017-04-25T13:09:00.387Z,11380
2017-04-25T13:10:10.743Z,11152
2017-04-25T13:11:20.784Z,10748
2017-04-25T13:12:30.851Z,10372
2017-04-25T13:13:40.893Z,9696
2017-04-25T13:14:50.637Z,9324
2017-04-25T13:16:01.002Z,8416
2017-04-25T13:17:11.373Z,8952
2017-04-25T13:18:21.741Z,5732
2017-04-25T13:19:32.093Z,6560
2017-04-25T13:20:42.443Z,7604
2017-04-25T13:21:52.796Z,6540
2017-04-25T13:23:03.140Z,9628
2017-04-25T13:24:13.545Z,9248
2017-04-25T13:25:23.898Z,6956
2017-04-25T13:26:33.943Z,9512
2017-04-25T13:27:44.304Z,10708
2017-04-25T13:28:54.361Z,11220
2017-04-25T13:30:04.718Z,11392
2017-04-25T13:31:14.766Z,11488
2017-04-25T13:32:24.817Z,11412
2017-04-25T13:33:34.542Z,11196
2017-04-25T13:34:44.592Z,10908
2017-04-25T13:35:54.630Z,9072
2017-04-25T13:37:04.978Z,10528
2017-04-25T13:38:15.333Z,10380
2017-04-25T13:39:25.708Z,9876
2017-04-25T13:40:36.078Z,9424
2017-04-25T13:41:46.458Z,9444
2017-04-25T13:42:56.811Z,9544
2017-04-25T13:44:07.172Z,9412
2017-04-25T13:45:17.218Z,9440
2017-04-25T13:46:27.288Z,9236
2017-04-25T13:47:37.637Z,8844
2017-04-25T13:48:47.986Z,6448
2017-04-25T13:49:58.053Z,5952
2017-04-25T13:51:08.403Z,5764
2017-04-25T13:52:18.759Z,6836
2017-04-25T13:53:29.129Z,8044
2017-04-25T13:54:39.522Z,6368
2017-04-25T13:55:49.571Z,5928
2017-04-25T13:56:59.924Z,5932
2017-04-25T13:58:10.290Z,5640
2017-04-25T13:59:20.585Z,6480
2017-04-25T14:00:30.629Z,7928
2017-04-25T14:01:40.980Z,8240
2017-04-25T14:02:51.393Z,8308
2017-04-25T14:04:01.763Z,7856
2017-04-25T14:05:12.107Z,7068
2017-04-25T14:06:22.473Z,4832
2017-04-25T14:07:32.842Z,7524
2017-04-25T14:08:43.244Z,6172
2017-04-25T14:09:53.321Z,7576
2017-04-25T14:11:03.086Z,7540
2017-04-25T14:12:13.459Z,7512
2017-04-25T14:13:23.523Z,7464
2017-04-25T14:14:33.901Z,7424
2017-04-25T14:15:43.964Z,7384
2017-04-25T14:16:54.327Z,7324
2017-04-25T14:18:04.410Z,7260
2017-04-25T14:19:14.449Z,7256
2017-04-25T14:20:24.515Z,7236
2017-04-25T14:21:34.563Z,7240
2017-04-25T14:22:44.924Z,7168
2017-04-25T14:23:54.674Z,7040
2017-04-25T14:25:05.061Z,6996
2017-04-25T14:26:15.138Z,6564
2017-04-25T14:27:25.546Z,5148
2017-04-25T14:28:35.618Z,6676
2017-04-25T14:29:46.004Z,5056
2017-04-25T14:30:56.378Z,4376
2017-04-25T14:32:06.760Z,4600
2017-04-25T14:33:17.134Z,5720
2017-04-25T14:34:27.190Z,6744
2017-04-25T14:35:37.566Z,8148
2017-04-25T14:36:47.931Z,5352
2017-04-25T14:37:58.303Z,5056
2017-04-25T14:39:08.680Z,5024
2017-04-25T14:40:18.733Z,5384
2017-04-25T14:41:28.776Z,7032
2017-04-25T14:42:38.839Z,7232
2017-04-25T14:43:48.891Z,7700
2017-04-25T14:44:59.238Z,7192
2017-04-25T14:46:09.599Z,6388
2017-04-25T14:47:19.970Z,6832
2017-04-25T14:48:30.341Z,7036
2017-04-25T14:49:40.700Z,6440
2017-04-25T14:50:51.048Z,6672
2017-04-25T14:52:00.773Z,6068
2017-04-25T14:53:11.133Z,6056
2017-04-25T14:54:21.220Z,5980
2017-04-25T14:55:31.578Z,5504
2017-04-25T14:56:41.613Z,5152
2017-04-25T14:57:51.353Z,5384
2017-04-25T14:59:01.712Z,5040
2017-04-25T15:00:11.779Z,4692
2017-04-25T15:01:22.158Z,4652
2017-04-25T15:02:32.205Z,4680
2017-04-25T15:03:42.244Z,6080
2017-04-25T15:04:52.613Z,6276
2017-04-25T15:06:02.675Z,5892
2017-04-25T15:07:13.050Z,6344
2017-04-25T15:08:23.099Z,6212
2017-04-25T15:09:33.159Z,5656
2017-04-25T15:10:43.201Z,5680
2017-04-25T15:11:53.558Z,6008
2017-04-25T15:13:03.939Z,6208
2017-04-25T15:14:13.675Z,6440
2017-04-25T15:15:23.727Z,6212
2017-04-25T15:16:33.763Z,6168
2017-04-25T15:17:44.143Z,5984
2017-04-25T15:18:54.529Z,6052
2017-04-25T15:20:04.889Z,6296
2017-04-25T15:21:15.234Z,6616
2017-04-25T15:22:25.588Z,6648
2017-04-25T15:23:35.931Z,6708
2017-04-25T15:24:45.983Z,6736
2017-04-25T15:25:56.349Z,6740
2017-04-25T15:27:06.710Z,6672
2017-04-25T15:28:17.067Z,6536
2017-04-25T15:29:27.436Z,6360
2017-04-25T15:30:37.466Z,6176
2017-04-25T15:31:47.830Z,5912
2017-04-25T15:32:58.191Z,5632
2017-04-25T15:34:08.550Z,5308
2017-04-25T15:35:18.278Z,5380
2017-04-25T15:36:28.639Z,5104
2017-04-25T15:37:39.015Z,4816
2017-04-25T15:38:49.045Z,4288
2017-04-25T15:39:59.400Z,4580
2017-04-25T15:41:09.456Z,4272
2017-04-25T15:42:19.219Z,3916
2017-04-25T15:43:29.277Z,3976
2017-04-25T15:44:39.642Z,4140
2017-04-25T15:45:49.991Z,4192
2017-04-25T15:47:00.350Z,4180
2017-04-25T15:48:10.704Z,4500
2017-04-25T15:49:21.094Z,4600
2017-04-25T15:50:30.520Z,4340
2017-04-25T15:51:40.884Z,4420
2017-04-25T15:52:51.292Z,3896
2017-04-25T15:54:01.657Z,3572
2017-04-25T15:55:11.771Z,3356
2017-04-25T15:56:22.124Z,3120
2017-04-25T15:57:32.241Z,3312
2017-04-25T15:58:42.300Z,3512
2017-04-25T15:59:52.340Z,3496
2017-04-25T16:01:02.451Z,3340
2017-04-25T16:02:12.496Z,3304
2017-04-25T16:03:22.550Z,3216
2017-04-25T16:04:32.952Z,3060
2017-04-25T16:05:43.315Z,3076
2017-04-25T16:06:53.678Z,3176
2017-04-25T16:08:04.045Z,3328
2017-04-25T16:09:14.404Z,3720
2017-04-25T16:10:24.778Z,4164
2017-04-25T16:11:34.819Z,4440
2017-04-25T16:12:44.878Z,4484
2017-04-25T16:13:55.248Z,4756
2017-04-25T16:15:05.606Z,4936
2017-04-25T16:16:15.667Z,5148
2017-04-25T16:17:25.726Z,5388
2017-04-25T16:18:36.099Z,5516
2017-04-25T16:19:46.174Z,5620
2017-04-25T16:20:56.532Z,5656
2017-04-25T16:22:06.934Z,5652
2017-04-25T16:23:17.303Z,5596